sensor_id;sensor_type;location;lat;lon;timestamp;pressure;altitude;pressure_sealevel;temperature;humidity
51829;BME280;37881;48.024;8.774;2022-10-29T00:02:10;94756.66;;;10.66;100.00
51829;BME280;37881;48.024;8.774;2022-10-29T00:04:37;94746.84;;;10.65;100.00
51829;BME280;37881;48.024;8.774;2022-10-29T00:07:03;94751.53;;;10.68;100.00
51829;BME280;37881;48.024;8.774;2022-10-29T00:09:30;94757.03;;;10.79;100.00
51829;BME280;37881;48.024;8.774;2022-10-29T00:11:56;94759.78;;;10.83;100.00
51829;BME280;37881;48.024;8.774;2022-10-29T00:14:23;94761.34;;;10.66;100.00
51829;BME280;37881;48.024;8.774;2022-10-29T00:16:50;94753.56;;;10.43;100.00
51829;BME280;37881;48.024;8.774;2022-10-29T00:19:16;94748.84;;;10.43;100.00
51829;BME280;37881;48.024;8.774;2022-10-29T00:21:43;94753.94;;;10.52;100.00
51829;BME280;37881;48.024;8.774;2022-10-29T00:24:10;94757.88;;;10.51;100.00
51829;BME280;37881;48.024;8.774;2022-10-29T00:26:36;94753.16;;;10.58;100.00
51829;BME280;37881;48.024;8.774;2022-10-29T00:29:03;94751.53;;;10.68;100.00
51829;BME280;37881;48.024;8.774;2022-10-29T00:31:30;94754.72;;;10.67;100.00
51829;BME280;37881;48.024;8.774;2022-10-29T00:33:57;94746.84;;;10.69;100.00
51829;BME280;37881;48.024;8.774;2022-10-29T00:36:26;94751.16;;;10.70;100.00
51829;BME280;37881;48.024;8.774;2022-10-29T00:38:53;94751.91;;;10.81;100.00
51829;BME280;37881;48.024;8.774;2022-10-29T00:41:26;94754.69;;;10.70;100.00
51829;BME280;37881;48.024;8.774;2022-10-29T00:44:35;94759.78;;;10.79;100.00
51829;BME280;37881;48.024;8.774;2022-10-29T00:47:25;94757.81;;;10.83;100.00
51829;BME280;37881;48.024;8.774;2022-10-29T00:50:05;94752.31;;;10.87;100.00
51829;BME280;37881;48.024;8.774;2022-10-29T00:52:37;94755.81;;;10.84;100.00
51829;BME280;37881;48.024;8.774;2022-10-29T00:55:07;94752.31;;;10.83;100.00
51829;BME280;37881;48.024;8.774;2022-10-29T00:57:40;94756.66;;;10.70;100.00
51829;BME280;37881;48.024;8.774;2022-10-29T01:00:09;94753.91;;;10.77;100.00
51829;BME280;37881;48.024;8.774;2022-10-29T01:02:37;94748.03;;;10.71;100.00
51829;BME280;37881;48.024;8.774;2022-10-29T01:05:04;94758.97;;;10.82;100.00
51829;BME280;37881;48.024;8.774;2022-10-29T01:07:31;94754.66;;;10.77;100.00
51829;BME280;37881;48.024;8.774;2022-10-29T01:09:58;94749.22;;;10.67;100.00
51829;BME280;37881;48.024;8.774;2022-10-29T01:12:47;94746.03;;;10.75;100.00
51829;BME280;37881;48.024;8.774;2022-10-29T01:18:19;94747.59;;;10.87;100.00
51829;BME280;37881;48.024;8.774;2022-10-29T01:21:13;94737.75;;;10.97;100.00
51829;BME280;37881;48.024;8.774;2022-10-29T01:34:42;94742.91;;;10.81;100.00
51829;BME280;37881;48.024;8.774;2022-10-29T01:37:19;94734.25;;;10.82;100.00
51829;BME280;37881;48.024;8.774;2022-10-29T01:39:57;94734.69;;;10.77;100.00
51829;BME280;37881;48.024;8.774;2022-10-29T01:42:38;94723.31;;;10.78;100.00
51829;BME280;37881;48.024;8.774;2022-10-29T01:48:10;94720.50;;;10.89;100.00
51829;BME280;37881;48.024;8.774;2022-10-29T01:50:41;94726.38;;;10.95;100.00
51829;BME280;37881;48.024;8.774;2022-10-29T01:53:10;94727.97;;;10.89;100.00
51829;BME280;37881;48.024;8.774;2022-10-29T01:55:37;94717.75;;;10.93;100.00
51829;BME280;37881;48.024;8.774;2022-10-29T01:58:05;94715.78;;;10.93;100.00
51829;BME280;37881;48.024;8.774;2022-10-29T02:00:49;94715.78;;;10.97;100.00
51829;BME280;37881;48.024;8.774;2022-10-29T02:03:32;94711.03;;;11.05;100.00
51829;BME280;37881;48.024;8.774;2022-10-29T02:09:30;94705.94;;;11.07;100.00
51829;BME280;37881;48.024;8.774;2022-10-29T02:12:02;94702.81;;;10.97;100.00
51829;BME280;37881;48.024;8.774;2022-10-29T02:14:36;94709.09;;;10.98;100.00
51829;BME280;37881;48.024;8.774;2022-10-29T02:17:05;94708.34;;;10.90;100.00
51829;BME280;37881;48.024;8.774;2022-10-29T02:19:33;94706.00;;;10.89;100.00
51829;BME280;37881;48.024;8.774;2022-10-29T02:22:01;94696.19;;;10.88;100.00
51829;BME280;37881;48.024;8.774;2022-10-29T02:24:28;94694.22;;;10.92;100.00
51829;BME280;37881;48.024;8.774;2022-10-29T02:26:55;94691.09;;;10.90;100.00
51829;BME280;37881;48.024;8.774;2022-10-29T02:29:21;94693.44;;;10.91;100.00
51829;BME280;37881;48.024;8.774;2022-10-29T02:31:48;94695.34;;;10.98;100.00
51829;BME280;37881;48.024;8.774;2022-10-29T02:34:15;94684.38;;;10.98;100.00
51829;BME280;37881;48.024;8.774;2022-10-29T02:36:41;94681.63;;;10.94;100.00
51829;BME280;37881;48.024;8.774;2022-10-29T02:39:08;94683.16;;;11.03;100.00
51829;BME280;37881;48.024;8.774;2022-10-29T02:41:34;94683.53;;;11.08;100.00
51829;BME280;37881;48.024;8.774;2022-10-29T02:44:01;94685.53;;;11.04;100.00
51829;BME280;37881;48.024;8.774;2022-10-29T02:46:28;94684.00;;;10.96;100.00
51829;BME280;37881;48.024;8.774;2022-10-29T02:48:55;94684.44;;;10.84;100.00
51829;BME280;37881;48.024;8.774;2022-10-29T02:51:22;94685.59;;;10.90;100.00
51829;BME280;37881;48.024;8.774;2022-10-29T02:53:48;94690.69;;;10.84;100.00
51829;BME280;37881;48.024;8.774;2022-10-29T02:56:15;94682.13;;;10.78;100.00
51829;BME280;37881;48.024;8.774;2022-10-29T02:58:42;94684.09;;;10.67;100.00
51829;BME280;37881;48.024;8.774;2022-10-29T03:01:08;94683.31;;;10.70;100.00
51829;BME280;37881;48.024;8.774;2022-10-29T03:03:35;94676.22;;;10.76;100.00
51829;BME280;37881;48.024;8.774;2022-10-29T03:06:02;94675.47;;;10.69;100.00
51829;BME280;37881;48.024;8.774;2022-10-29T03:08:29;94667.66;;;10.64;100.00
51829;BME280;37881;48.024;8.774;2022-10-29T03:10:56;94666.88;;;10.59;100.00
51829;BME280;37881;48.024;8.774;2022-10-29T03:13:22;94667.25;;;10.58;100.00
51829;BME280;37881;48.024;8.774;2022-10-29T03:15:49;94672.84;;;10.36;100.00
51829;BME280;37881;48.024;8.774;2022-10-29T03:18:16;94672.81;;;10.22;100.00
51829;BME280;37881;48.024;8.774;2022-10-29T03:20:42;94670.09;;;10.11;100.00
51829;BME280;37881;48.024;8.774;2022-10-29T03:23:10;94667.31;;;10.29;100.00
51829;BME280;37881;48.024;8.774;2022-10-29T03:25:37;94660.28;;;10.32;100.00
51829;BME280;37881;48.024;8.774;2022-10-29T03:28:04;94658.34;;;10.32;100.00
51829;BME280;37881;48.024;8.774;2022-10-29T03:30:31;94662.63;;;10.30;100.00
51829;BME280;37881;48.024;8.774;2022-10-29T03:32:57;94663.81;;;10.29;100.00
51829;BME280;37881;48.024;8.774;2022-10-29T03:35:24;94667.75;;;10.20;100.00
51829;BME280;37881;48.024;8.774;2022-10-29T03:37:52;94664.22;;;10.16;100.00
51829;BME280;37881;48.024;8.774;2022-10-29T03:40:18;94675.56;;;10.08;100.00
51829;BME280;37881;48.024;8.774;2022-10-29T03:42:45;94671.28;;;10.03;100.00
51829;BME280;37881;48.024;8.774;2022-10-29T03:45:13;94670.88;;;9.97;100.00
51829;BME280;37881;48.024;8.774;2022-10-29T03:47:39;94668.94;;;9.94;100.00
51829;BME280;37881;48.024;8.774;2022-10-29T03:50:07;94670.13;;;9.83;100.00
51829;BME280;37881;48.024;8.774;2022-10-29T03:52:34;94676.00;;;9.88;100.00
51829;BME280;37881;48.024;8.774;2022-10-29T03:55:01;94668.94;;;9.87;100.00
51829;BME280;37881;48.024;8.774;2022-10-29T03:57:27;94673.66;;;9.87;100.00
51829;BME280;37881;48.024;8.774;2022-10-29T03:59:54;94684.19;;;9.59;100.00
51829;BME280;37881;48.024;8.774;2022-10-29T04:02:22;94674.81;;;9.75;100.00
51829;BME280;37881;48.024;8.774;2022-10-29T04:04:49;94675.19;;;9.73;100.00
51829;BME280;37881;48.024;8.774;2022-10-29T04:07:15;94681.50;;;9.74;100.00
51829;BME280;37881;48.024;8.774;2022-10-29T04:09:42;94676.78;;;9.71;100.00
51829;BME280;37881;48.024;8.774;2022-10-29T04:12:09;94678.72;;;9.63;100.00
51829;BME280;37881;48.024;8.774;2022-10-29T04:14:35;94683.81;;;9.61;100.00
51829;BME280;37881;48.024;8.774;2022-10-29T04:17:11;94667.75;;;9.59;100.00
51829;BME280;37881;48.024;8.774;2022-10-29T04:19:38;94681.06;;;9.61;100.00
51829;BME280;37881;48.024;8.774;2022-10-29T04:22:06;94684.19;;;9.63;100.00
51829;BME280;37881;48.024;8.774;2022-10-29T04:24:53;94685.00;;;9.67;100.00
51829;BME280;37881;48.024;8.774;2022-10-29T04:27:39;94692.44;;;9.67;100.00
51829;BME280;37881;48.024;8.774;2022-10-29T04:30:26;94682.66;;;9.62;100.00
51829;BME280;37881;48.024;8.774;2022-10-29T04:32:56;94692.03;;;9.57;100.00
51829;BME280;37881;48.024;8.774;2022-10-29T04:35:27;94692.44;;;9.52;100.00
51829;BME280;37881;48.024;8.774;2022-10-29T04:37:54;94693.59;;;9.55;100.00
51829;BME280;37881;48.024;8.774;2022-10-29T04:40:22;94694.75;;;9.47;100.00
51829;BME280;37881;48.024;8.774;2022-10-29T04:42:49;94699.84;;;9.48;100.00
51829;BME280;37881;48.024;8.774;2022-10-29T04:45:17;94700.25;;;9.54;100.00
51829;BME280;37881;48.024;8.774;2022-10-29T04:47:43;94700.25;;;9.50;100.00
51829;BME280;37881;48.024;8.774;2022-10-29T04:50:10;94696.31;;;9.51;100.00
51829;BME280;37881;48.024;8.774;2022-10-29T04:52:36;94698.28;;;9.47;100.00
51829;BME280;37881;48.024;8.774;2022-10-29T04:55:03;94694.75;;;9.47;100.00
51829;BME280;37881;48.024;8.774;2022-10-29T04:57:30;94699.06;;;9.44;100.00
51829;BME280;37881;48.024;8.774;2022-10-29T04:59:57;94692.00;;;9.39;100.00
51829;BME280;37881;48.024;8.774;2022-10-29T05:02:23;94695.13;;;9.34;100.00
51829;BME280;37881;48.024;8.774;2022-10-29T05:04:50;94691.97;;;9.29;100.00
51829;BME280;37881;48.024;8.774;2022-10-29T05:07:16;94696.69;;;9.32;100.00
51829;BME280;37881;48.024;8.774;2022-10-29T05:09:43;94690.78;;;9.19;100.00
51829;BME280;37881;48.024;8.774;2022-10-29T05:12:09;94694.31;;;9.23;100.00
51829;BME280;37881;48.024;8.774;2022-10-29T05:14:36;94693.53;;;9.23;100.00
51829;BME280;37881;48.024;8.774;2022-10-29T05:17:03;94684.53;;;9.22;100.00
51829;BME280;37881;48.024;8.774;2022-10-29T05:19:29;94689.22;;;9.18;100.00
51829;BME280;37881;48.024;8.774;2022-10-29T05:21:56;94689.63;;;9.16;100.00
51829;BME280;37881;48.024;8.774;2022-10-29T05:24:23;94687.66;;;9.17;100.00
51829;BME280;37881;48.024;8.774;2022-10-29T05:26:49;94689.97;;;9.11;100.00
51829;BME280;37881;48.024;8.774;2022-10-29T05:29:16;94695.47;;;9.15;100.00
51829;BME280;37881;48.024;8.774;2022-10-29T05:31:43;94692.72;;;9.11;100.00
51829;BME280;37881;48.024;8.774;2022-10-29T05:34:09;94694.69;;;9.11;100.00
51829;BME280;37881;48.024;8.774;2022-10-29T05:36:36;94687.63;;;9.03;100.00
51829;BME280;37881;48.024;8.774;2022-10-29T05:39:02;94688.00;;;9.05;100.00
51829;BME280;37881;48.024;8.774;2022-10-29T05:41:29;94684.91;;;9.06;100.00
51829;BME280;37881;48.024;8.774;2022-10-29T05:43:56;94684.09;;;9.09;100.00
51829;BME280;37881;48.024;8.774;2022-10-29T05:46:22;94692.72;;;9.08;100.00
51829;BME280;37881;48.024;8.774;2022-10-29T05:48:49;94691.13;;;8.99;100.00
51829;BME280;37881;48.024;8.774;2022-10-29T05:51:16;94693.88;;;8.99;100.00
51829;BME280;37881;48.024;8.774;2022-10-29T05:53:42;94687.63;;;9.03;100.00
51829;BME280;37881;48.024;8.774;2022-10-29T05:56:09;94695.03;;;8.98;100.00
51829;BME280;37881;48.024;8.774;2022-10-29T05:58:35;94691.91;;;8.96;100.00
51829;BME280;37881;48.024;8.774;2022-10-29T06:01:05;94690.72;;;8.90;100.00
51829;BME280;37881;48.024;8.774;2022-10-29T06:03:32;94694.63;;;8.96;100.00
51829;BME280;37881;48.024;8.774;2022-10-29T06:05:59;94692.28;;;8.98;100.00
51829;BME280;37881;48.024;8.774;2022-10-29T06:08:26;94693.06;;;8.92;100.00
51829;BME280;37881;48.024;8.774;2022-10-29T06:10:53;94695.81;;;8.95;100.00
51829;BME280;37881;48.024;8.774;2022-10-29T06:13:20;94693.47;;;8.97;100.00
51829;BME280;37881;48.024;8.774;2022-10-29T06:15:54;94701.69;;;8.97;100.00
51829;BME280;37881;48.024;8.774;2022-10-29T06:18:21;94694.25;;;9.05;100.00
51829;BME280;37881;48.024;8.774;2022-10-29T06:20:48;94699.78;;;9.12;100.00
51829;BME280;37881;48.024;8.774;2022-10-29T06:23:14;94700.56;;;9.16;100.00
51829;BME280;37881;48.024;8.774;2022-10-29T06:25:41;94701.38;;;9.24;100.00
51829;BME280;37881;48.024;8.774;2022-10-29T06:28:12;94702.97;;;9.36;100.00
51829;BME280;37881;48.024;8.774;2022-10-29T06:30:49;94693.56;;;9.40;100.00
51829;BME280;37881;48.024;8.774;2022-10-29T06:33:17;94695.53;;;9.47;100.00
51829;BME280;37881;48.024;8.774;2022-10-29T06:35:45;94698.31;;;9.54;100.00
51829;BME280;37881;48.024;8.774;2022-10-29T06:38:12;94696.34;;;9.66;100.00
51829;BME280;37881;48.024;8.774;2022-10-29T06:40:41;94693.22;;;9.67;100.00
51829;BME280;37881;48.024;8.774;2022-10-29T06:43:10;94694.81;;;9.86;100.00
51829;BME280;37881;48.024;8.774;2022-10-29T06:45:37;94687.34;;;9.97;100.00
51829;BME280;37881;48.024;8.774;2022-10-29T06:48:04;94692.84;;;10.05;100.00
51829;BME280;37881;48.024;8.774;2022-10-29T06:50:31;94686.94;;;9.99;100.00
51829;BME280;37881;48.024;8.774;2022-10-29T06:52:59;94690.88;;;10.09;100.00
51829;BME280;37881;48.024;8.774;2022-10-29T06:55:27;94700.25;;;10.22;100.00
51829;BME280;37881;48.024;8.774;2022-10-29T07:00:23;94698.59;;;10.78;100.00
51829;BME280;37881;48.024;8.774;2022-10-29T07:02:50;94689.47;;;11.07;100.00
51829;BME280;37881;48.024;8.774;2022-10-29T07:05:17;94695.22;;;11.86;97.29
51829;BME280;37881;48.024;8.774;2022-10-29T07:07:44;94701.69;;;12.93;94.00
51829;BME280;37881;48.024;8.774;2022-10-29T07:10:11;94702.56;;;13.79;87.69
51829;BME280;37881;48.024;8.774;2022-10-29T07:12:41;94697.50;;;14.72;83.54
51829;BME280;37881;48.024;8.774;2022-10-29T07:15:11;94694.75;;;15.32;78.36
51829;BME280;37881;48.024;8.774;2022-10-29T07:17:38;94691.31;;;14.64;79.65
51829;BME280;37881;48.024;8.774;2022-10-29T07:20:06;94699.50;;;15.11;77.04
51829;BME280;37881;48.024;8.774;2022-10-29T07:22:33;94698.78;;;15.84;73.42
51829;BME280;37881;48.024;8.774;2022-10-29T07:25:00;94693.25;;;16.16;72.39
51829;BME280;37881;48.024;8.774;2022-10-29T07:27:27;94698.00;;;16.32;70.10
51829;BME280;37881;48.024;8.774;2022-10-29T07:29:54;94699.91;;;17.40;67.50
51829;BME280;37881;48.024;8.774;2022-10-29T07:32:22;94708.44;;;17.32;66.98
51829;BME280;37881;48.024;8.774;2022-10-29T07:34:49;94700.41;;;17.64;64.95
51829;BME280;37881;48.024;8.774;2022-10-29T07:37:15;94702.69;;;18.68;62.58
51829;BME280;37881;48.024;8.774;2022-10-29T07:39:42;94718.03;;;19.29;60.31
51829;BME280;37881;48.024;8.774;2022-10-29T07:42:09;94705.19;;;20.07;57.70
51829;BME280;37881;48.024;8.774;2022-10-29T07:44:35;94713.25;;;19.30;60.04
51829;BME280;37881;48.024;8.774;2022-10-29T07:47:02;94703.34;;;20.13;56.66
51829;BME280;37881;48.024;8.774;2022-10-29T07:49:28;94704.16;;;20.82;54.69
51829;BME280;37881;48.024;8.774;2022-10-29T07:51:55;94704.50;;;21.21;53.56
51829;BME280;37881;48.024;8.774;2022-10-29T07:54:22;94701.31;;;22.17;51.44
51829;BME280;37881;48.024;8.774;2022-10-29T07:56:51;94699.06;;;21.08;53.63
51829;BME280;37881;48.024;8.774;2022-10-29T07:59:18;94701.25;;;21.93;51.93
51829;BME280;37881;48.024;8.774;2022-10-29T08:01:45;94704.25;;;22.32;50.65
51829;BME280;37881;48.024;8.774;2022-10-29T08:04:12;94703.38;;;23.22;47.45
51829;BME280;37881;48.024;8.774;2022-10-29T08:06:39;94711.69;;;23.31;47.32
51829;BME280;37881;48.024;8.774;2022-10-29T08:09:06;94706.00;;;22.53;48.69
51829;BME280;37881;48.024;8.774;2022-10-29T08:11:33;94705.59;;;22.46;49.41
51829;BME280;37881;48.024;8.774;2022-10-29T08:14:00;94704.72;;;22.64;48.06
51829;BME280;37881;48.024;8.774;2022-10-29T08:16:26;94695.19;;;22.37;49.30
51829;BME280;37881;48.024;8.774;2022-10-29T08:18:53;94709.22;;;23.09;47.85
51829;BME280;37881;48.024;8.774;2022-10-29T08:21:20;94703.97;;;22.30;48.85
51829;BME280;37881;48.024;8.774;2022-10-29T08:23:47;94702.69;;;22.64;48.36
51829;BME280;37881;48.024;8.774;2022-10-29T08:26:14;94696.78;;;22.86;47.85
51829;BME280;37881;48.024;8.774;2022-10-29T08:28:40;94706.66;;;23.89;45.46
51829;BME280;37881;48.024;8.774;2022-10-29T08:31:10;94699.09;;;24.61;44.65
51829;BME280;37881;48.024;8.774;2022-10-29T08:33:37;94693.00;;;24.83;43.73
51829;BME280;37881;48.024;8.774;2022-10-29T08:36:03;94694.47;;;23.78;45.89
51829;BME280;37881;48.024;8.774;2022-10-29T08:38:30;94695.53;;;23.80;46.67
51829;BME280;37881;48.024;8.774;2022-10-29T08:46:20;94695.50;;;27.01;40.09
51829;BME280;37881;48.024;8.774;2022-10-29T08:48:54;94699.69;;;27.23;38.36
51829;BME280;37881;48.024;8.774;2022-10-29T08:54:02;94694.69;;;26.52;39.98
51829;BME280;37881;48.024;8.774;2022-10-29T08:56:52;94697.28;;;26.99;38.68
51829;BME280;37881;48.024;8.774;2022-10-29T08:59:23;94686.06;;;25.66;41.67
51829;BME280;37881;48.024;8.774;2022-10-29T09:01:51;94686.50;;;26.48;40.01
51829;BME280;37881;48.024;8.774;2022-10-29T09:09:38;94680.00;;;29.20;36.04
51829;BME280;37881;48.024;8.774;2022-10-29T09:18:08;94686.91;;;24.64;42.93
51829;BME280;37881;48.024;8.774;2022-10-29T09:26:46;94679.66;;;24.07;45.23
51829;BME280;37881;48.024;8.774;2022-10-29T09:32:13;94679.28;;;25.78;41.81
51829;BME280;37881;48.024;8.774;2022-10-29T09:34:50;94673.19;;;27.75;38.63
51829;BME280;37881;48.024;8.774;2022-10-29T09:40:05;94665.25;;;30.16;33.73
51829;BME280;37881;48.024;8.774;2022-10-29T09:42:35;94664.88;;;29.59;34.00
51829;BME280;37881;48.024;8.774;2022-10-29T09:45:06;94661.91;;;30.18;33.59
51829;BME280;37881;48.024;8.774;2022-10-29T09:48:10;94663.84;;;28.98;34.14
51829;BME280;37881;48.024;8.774;2022-10-29T09:50:54;94660.06;;;28.79;34.20
51829;BME280;37881;48.024;8.774;2022-10-29T09:53:23;94659.13;;;29.29;33.64
51829;BME280;37881;48.024;8.774;2022-10-29T09:55:50;94653.97;;;29.33;33.66
51829;BME280;37881;48.024;8.774;2022-10-29T09:58:22;94654.25;;;30.43;32.13
51829;BME280;37881;48.024;8.774;2022-10-29T10:00:50;94649.97;;;31.04;31.58
51829;BME280;37881;48.024;8.774;2022-10-29T10:06:05;94644.25;;;31.86;30.12
51829;BME280;37881;48.024;8.774;2022-10-29T10:08:33;94638.88;;;32.34;29.90
51829;BME280;37881;48.024;8.774;2022-10-29T10:11:02;94641.13;;;33.21;29.15
51829;BME280;37881;48.024;8.774;2022-10-29T10:13:33;94633.19;;;33.54;27.31
51829;BME280;37881;48.024;8.774;2022-10-29T10:16:01;94627.50;;;33.67;27.76
51829;BME280;37881;48.024;8.774;2022-10-29T10:21:12;94623.41;;;32.61;27.61
51829;BME280;37881;48.024;8.774;2022-10-29T10:23:48;94619.22;;;32.49;27.26
51829;BME280;37881;48.024;8.774;2022-10-29T10:26:37;94617.00;;;31.64;27.35
51829;BME280;37881;48.024;8.774;2022-10-29T10:29:16;94624.19;;;31.65;28.65
51829;BME280;37881;48.024;8.774;2022-10-29T10:31:45;94616.78;;;30.25;29.75
51829;BME280;37881;48.024;8.774;2022-10-29T10:34:20;94611.44;;;30.96;28.06
51829;BME280;37881;48.024;8.774;2022-10-29T10:36:53;94617.78;;;30.28;29.35
51829;BME280;37881;48.024;8.774;2022-10-29T10:39:35;94608.69;;;30.41;26.49
51829;BME280;37881;48.024;8.774;2022-10-29T10:42:05;94614.78;;;30.20;27.92
51829;BME280;37881;48.024;8.774;2022-10-29T10:44:33;94609.19;;;30.15;27.71
51829;BME280;37881;48.024;8.774;2022-10-29T10:47:04;94605.09;;;29.38;29.63
51829;BME280;37881;48.024;8.774;2022-10-29T10:49:36;94598.81;;;29.15;29.86
51829;BME280;37881;48.024;8.774;2022-10-29T10:54:54;94602.81;;;31.45;27.34
51829;BME280;37881;48.024;8.774;2022-10-29T10:57:24;94599.59;;;31.16;28.12
51829;BME280;37881;48.024;8.774;2022-10-29T11:00:16;94604.34;;;31.27;27.79
51829;BME280;37881;48.024;8.774;2022-10-29T11:03:29;94593.06;;;31.40;27.07
51829;BME280;37881;48.024;8.774;2022-10-29T11:05:39;94588.56;;;31.32;27.37
51829;BME280;37881;48.024;8.774;2022-10-29T11:10:49;94585.47;;;29.04;29.39
51829;BME280;37881;48.024;8.774;2022-10-29T11:13:21;94584.16;;;29.58;28.65
51829;BME280;37881;48.024;8.774;2022-10-29T11:16:12;94581.97;;;30.06;28.23
51829;BME280;37881;48.024;8.774;2022-10-29T11:18:52;94579.28;;;30.19;27.16
51829;BME280;37881;48.024;8.774;2022-10-29T11:21:45;94580.88;;;30.15;28.21
51829;BME280;37881;48.024;8.774;2022-10-29T11:25:22;94578.53;;;29.89;27.99
51829;BME280;37881;48.024;8.774;2022-10-29T11:27:36;94574.06;;;30.97;27.11
51829;BME280;37881;48.024;8.774;2022-10-29T11:30:11;94570.75;;;30.50;27.34
51829;BME280;37881;48.024;8.774;2022-10-29T11:33:04;94565.97;;;30.39;27.64
51829;BME280;37881;48.024;8.774;2022-10-29T11:35:50;94562.84;;;30.12;26.94
51829;BME280;37881;48.024;8.774;2022-10-29T11:38:44;94569.44;;;29.96;27.56
51829;BME280;37881;48.024;8.774;2022-10-29T11:41:28;94562.56;;;28.61;29.40
51829;BME280;37881;48.024;8.774;2022-10-29T11:43:57;94560.69;;;28.75;29.45
51829;BME280;37881;48.024;8.774;2022-10-29T11:52:07;94549.16;;;26.58;31.73
51829;BME280;37881;48.024;8.774;2022-10-29T11:57:24;94548.78;;;25.90;33.12
51829;BME280;37881;48.024;8.774;2022-10-29T12:00:10;94548.59;;;25.10;33.67
51829;BME280;37881;48.024;8.774;2022-10-29T12:05:44;94547.97;;;24.54;34.12
51829;BME280;37881;48.024;8.774;2022-10-29T12:11:32;94540.84;;;24.99;33.48
51829;BME280;37881;48.024;8.774;2022-10-29T12:17:00;94538.31;;;24.81;33.60
51829;BME280;37881;48.024;8.774;2022-10-29T12:19:40;94532.44;;;24.79;33.05
51829;BME280;37881;48.024;8.774;2022-10-29T12:25:28;94526.72;;;24.67;33.31
51829;BME280;37881;48.024;8.774;2022-10-29T12:28:11;94518.13;;;25.03;33.30
51829;BME280;37881;48.024;8.774;2022-10-29T12:37:36;94511.81;;;24.82;32.97
51829;BME280;37881;48.024;8.774;2022-10-29T12:39:45;94509.66;;;24.50;33.06
51829;BME280;37881;48.024;8.774;2022-10-29T12:42:18;94509.59;;;24.45;32.75
51829;BME280;37881;48.024;8.774;2022-10-29T12:48:03;94501.41;;;24.41;33.64
51829;BME280;37881;48.024;8.774;2022-10-29T12:53:59;94499.47;;;24.74;34.93
51829;BME280;37881;48.024;8.774;2022-10-29T12:56:32;94497.69;;;24.29;37.47
51829;BME280;37881;48.024;8.774;2022-10-29T12:59:34;94502.66;;;24.40;38.48
51829;BME280;37881;48.024;8.774;2022-10-29T13:17:54;94490.50;;;24.69;37.54
51829;BME280;37881;48.024;8.774;2022-10-29T13:20:33;94484.81;;;24.64;37.84
51829;BME280;37881;48.024;8.774;2022-10-29T13:23:02;94483.69;;;24.76;36.40
51829;BME280;37881;48.024;8.774;2022-10-29T13:30:38;94476.22;;;24.26;34.60
51829;BME280;37881;48.024;8.774;2022-10-29T13:41:48;94471.47;;;24.53;34.29
51829;BME280;37881;48.024;8.774;2022-10-29T13:44:19;94475.03;;;24.33;35.81
51829;BME280;37881;48.024;8.774;2022-10-29T13:47:03;94475.06;;;24.39;36.61
51829;BME280;37881;48.024;8.774;2022-10-29T13:49:41;94464.44;;;24.43;38.32
51829;BME280;37881;48.024;8.774;2022-10-29T13:52:23;94469.94;;;24.11;40.62
51829;BME280;37881;48.024;8.774;2022-10-29T13:55:00;94469.25;;;24.42;40.27
51829;BME280;37881;48.024;8.774;2022-10-29T14:00:29;94462.41;;;24.02;40.91
51829;BME280;37881;48.024;8.774;2022-10-29T14:03:10;94461.88;;;24.19;41.25
51829;BME280;37881;48.024;8.774;2022-10-29T14:05:52;94462.56;;;24.13;41.29
51829;BME280;37881;48.024;8.774;2022-10-29T14:08:43;94460.66;;;23.49;41.80
51829;BME280;37881;48.024;8.774;2022-10-29T14:11:27;94463.47;;;23.49;41.86
51829;BME280;37881;48.024;8.774;2022-10-29T14:14:00;94462.28;;;23.56;41.89
51829;BME280;37881;48.024;8.774;2022-10-29T14:16:30;94462.28;;;23.20;42.62
51829;BME280;37881;48.024;8.774;2022-10-29T14:19:19;94460.63;;;23.28;41.95
51829;BME280;37881;48.024;8.774;2022-10-29T14:21:47;94458.69;;;23.20;42.34
51829;BME280;37881;48.024;8.774;2022-10-29T14:24:15;94456.84;;;23.31;42.20
51829;BME280;37881;48.024;8.774;2022-10-29T14:26:43;94467.50;;;23.12;42.53
51829;BME280;37881;48.024;8.774;2022-10-29T14:29:19;94464.03;;;23.03;43.30
51829;BME280;37881;48.024;8.774;2022-10-29T14:31:57;94469.50;;;22.97;43.58
51829;BME280;37881;48.024;8.774;2022-10-29T14:34:32;94458.81;;;22.66;44.41
51829;BME280;37881;48.024;8.774;2022-10-29T14:37:05;94463.44;;;22.69;44.65
51829;BME280;37881;48.024;8.774;2022-10-29T14:39:38;94468.03;;;22.57;45.40
51829;BME280;37881;48.024;8.774;2022-10-29T14:42:32;94471.19;;;22.35;45.78
51829;BME280;37881;48.024;8.774;2022-10-29T14:45:04;94468.19;;;22.24;46.30
51829;BME280;37881;48.024;8.774;2022-10-29T14:47:35;94474.38;;;22.04;46.59
51829;BME280;37881;48.024;8.774;2022-10-29T14:50:12;94465.75;;;21.92;47.62
51829;BME280;37881;48.024;8.774;2022-10-29T14:52:49;94467.19;;;21.88;47.15
51829;BME280;37881;48.024;8.774;2022-10-29T14:55:30;94468.13;;;21.61;47.91
51829;BME280;37881;48.024;8.774;2022-10-29T14:58:22;94469.38;;;21.60;47.99
51829;BME280;37881;48.024;8.774;2022-10-29T15:01:03;94462.06;;;21.62;48.10
51829;BME280;37881;48.024;8.774;2022-10-29T15:03:33;94465.03;;;21.59;48.24
51829;BME280;37881;48.024;8.774;2022-10-29T15:06:14;94456.91;;;21.46;48.30
51829;BME280;37881;48.024;8.774;2022-10-29T15:08:44;94463.63;;;21.30;48.52
51829;BME280;37881;48.024;8.774;2022-10-29T15:11:46;94465.66;;;21.20;48.83
51829;BME280;37881;48.024;8.774;2022-10-29T15:14:48;94453.09;;;20.82;49.18
51829;BME280;37881;48.024;8.774;2022-10-29T15:17:27;94458.38;;;20.80;50.05
51829;BME280;37881;48.024;8.774;2022-10-29T15:20:00;94458.81;;;20.88;49.45
51829;BME280;37881;48.024;8.774;2022-10-29T15:22:31;94457.00;;;20.66;49.84
51829;BME280;37881;48.024;8.774;2022-10-29T15:25:04;94456.72;;;20.46;51.43
51829;BME280;37881;48.024;8.774;2022-10-29T15:27:35;94453.00;;;20.40;51.19
51829;BME280;37881;48.024;8.774;2022-10-29T15:30:05;94453.03;;;20.21;51.08
51829;BME280;37881;48.024;8.774;2022-10-29T15:32:34;94458.78;;;20.08;51.84